createdAt,value
2023-11-25T00:03:45.373Z,11.13
2023-11-25T00:07:47.484Z,8.43
2023-11-25T00:11:49.240Z,10.47
2023-11-25T00:15:50.633Z,13.57
2023-11-25T00:19:51.943Z,11.70
2023-11-25T00:23:53.588Z,8.77
2023-11-25T00:27:54.939Z,11.43
2023-11-25T00:31:56.249Z,8.07
2023-11-25T00:35:57.668Z,18.03
2023-11-25T00:40:00.374Z,7.30
2023-11-25T00:44:04.365Z,12.93
2023-11-25T00:48:07.886Z,10.83
2023-11-25T00:52:09.612Z,11.93
2023-11-25T00:56:11.730Z,7.30
2023-11-25T01:00:17.490Z,7.73
2023-11-25T01:04:19.314Z,10.57
2023-11-25T01:08:21.356Z,10.90
2023-11-25T01:12:23.759Z,12.23
2023-11-25T01:16:26.093Z,5.93
2023-11-25T01:20:27.902Z,8.93
2023-11-25T01:24:29.680Z,6.67
2023-11-25T01:28:31.183Z,12.47
2023-11-25T01:32:32.728Z,11.97
2023-11-25T01:36:34.120Z,10.97
2023-11-25T01:40:35.537Z,15.33
2023-11-25T01:44:36.862Z,14.20
2023-11-25T01:48:38.637Z,11.07
2023-11-25T01:52:41.719Z,14.20
2023-11-25T01:56:45.582Z,13.57
2023-11-25T02:00:47.929Z,14.40
2023-11-25T02:04:49.496Z,11.53
2023-11-25T02:08:51.743Z,10.30
2023-11-25T02:12:53.087Z,11.70
2023-11-25T02:16:58.252Z,12.63
2023-11-25T02:20:59.806Z,14.33
2023-11-25T02:25:01.119Z,12.23
2023-11-25T02:29:02.578Z,11.57
2023-11-25T02:33:04.157Z,18.03
2023-11-25T02:37:08.092Z,14.73
2023-11-25T02:41:11.463Z,21.60
2023-11-25T02:45:13.232Z,15.97
2023-11-25T02:49:14.878Z,16.17
2023-11-25T02:53:16.280Z,16.90
2023-11-25T02:57:20.258Z,9.90
2023-11-25T03:01:24.752Z,11.73
2023-11-25T03:05:26.123Z,10.60
2023-11-25T03:09:29.113Z,13.23
2023-11-25T03:13:30.575Z,12.30
2023-11-25T03:17:31.978Z,13.80
2023-11-25T03:21:35.015Z,16.97
2023-11-25T03:25:36.473Z,12.63
2023-11-25T03:29:37.965Z,12.53
2023-11-25T03:33:39.600Z,10.50
2023-11-25T03:37:41.322Z,8.50
2023-11-25T03:41:42.745Z,20.43
2023-11-25T03:45:44.071Z,12.63
2023-11-25T03:49:46.135Z,13.60
2023-11-25T03:53:48.287Z,12.77
2023-11-25T03:57:49.784Z,12.63
2023-11-25T04:01:51.709Z,16.37
2023-11-25T04:05:53.383Z,10.37
2023-11-25T04:09:54.691Z,12.83
2023-11-25T04:13:58.556Z,14.67
2023-11-25T04:17:59.995Z,15.57
2023-11-25T04:22:02.464Z,15.30
2023-11-25T04:26:03.890Z,11.63
2023-11-25T04:30:06.334Z,15.73
2023-11-25T04:34:07.658Z,12.23
2023-11-25T04:38:09.317Z,11.60
2023-11-25T04:42:10.655Z,17.97
2023-11-25T04:46:12.364Z,15.37
2023-11-25T04:50:14.965Z,11.80
2023-11-25T04:54:16.409Z,16.30
2023-11-25T04:58:17.810Z,17.27
2023-11-25T05:02:19.282Z,12.97
2023-11-25T05:06:20.833Z,14.50
2023-11-25T05:10:22.440Z,9.83
2023-11-25T05:14:25.701Z,12.50
2023-11-25T05:18:27.107Z,13.70
2023-11-25T05:22:29.339Z,13.00
2023-11-25T05:26:31.006Z,14.10
2023-11-25T05:30:32.350Z,13.23
2023-11-25T05:34:33.954Z,13.83
2023-11-25T05:38:36.732Z,16.10
2023-11-25T05:42:48.366Z,13.37
2023-11-25T05:46:50.595Z,12.57
2023-11-25T05:50:52.003Z,12.83
2023-11-25T05:54:53.441Z,9.67
2023-11-25T05:58:55.100Z,9.17
2023-11-25T06:02:57.067Z,12.93
2023-11-25T06:06:58.403Z,15.00
2023-11-25T06:10:59.750Z,14.10
2023-11-25T06:15:01.577Z,11.17
2023-11-25T06:19:05.009Z,14.17
2023-11-25T06:23:06.347Z,11.37
2023-11-25T06:27:07.941Z,16.33
2023-11-25T06:31:13.541Z,17.20
2023-11-25T06:35:15.069Z,13.17
2023-11-25T06:39:20.282Z,18.30
2023-11-25T06:43:21.739Z,12.03
2023-11-25T06:47:23.469Z,15.50
2023-11-25T06:51:24.918Z,13.13
2023-11-25T06:55:26.297Z,16.63
2023-11-25T06:59:27.854Z,14.13
2023-11-25T07:03:29.218Z,14.60
2023-11-25T07:07:30.908Z,12.07
2023-11-25T07:11:32.433Z,11.33
2023-11-25T07:15:33.833Z,16.63
2023-11-25T07:19:35.171Z,8.40
2023-11-25T07:23:37.237Z,18.17
2023-11-25T07:27:39.592Z,10.70
2023-11-25T07:31:41.103Z,16.67
2023-11-25T07:35:42.524Z,11.30
2023-11-25T07:39:45.515Z,9.90
2023-11-25T07:43:47.274Z,13.87
2023-11-25T07:47:49.001Z,15.17
2023-11-25T07:51:50.745Z,12.37
2023-11-25T07:55:53.142Z,16.13
2023-11-25T07:59:54.757Z,15.20
2023-11-25T08:03:56.283Z,15.93
2023-11-25T08:07:57.911Z,8.20
2023-11-25T08:11:59.675Z,12.07
2023-11-25T08:16:02.164Z,7.83
2023-11-25T08:20:05.051Z,10.23
2023-11-25T08:24:06.871Z,11.37
2023-11-25T08:28:08.361Z,11.77
2023-11-25T08:32:10.029Z,13.00
2023-11-25T08:36:12.599Z,9.00
2023-11-25T08:40:18.200Z,10.00
2023-11-25T08:44:20.867Z,13.63
2023-11-25T08:48:22.269Z,14.20
2023-11-25T08:52:24.378Z,7.47
2023-11-25T08:56:29.720Z,10.43
2023-11-25T09:00:33.193Z,12.20
2023-11-25T09:04:37.197Z,10.30
2023-11-25T09:08:38.578Z,9.33
2023-11-25T09:12:41.155Z,10.57
2023-11-25T09:16:43.864Z,10.50
2023-11-25T09:20:46.257Z,12.63
2023-11-25T09:24:47.587Z,12.40
2023-11-25T09:28:49.046Z,10.90
2023-11-25T09:32:50.574Z,10.23
2023-11-25T09:36:51.981Z,8.57
2023-11-25T09:40:53.486Z,9.07
2023-11-25T09:44:55.922Z,13.03
2023-11-25T09:48:57.368Z,9.43
2023-11-25T09:53:00.401Z,9.60
2023-11-25T09:57:04.700Z,7.63
2023-11-25T10:01:13.271Z,7.90
2023-11-25T10:05:14.813Z,10.00
2023-11-25T10:09:16.796Z,9.83
2023-11-25T10:13:18.120Z,12.10
2023-11-25T10:17:20.957Z,10.63
2023-11-25T10:21:22.291Z,9.43
2023-11-25T10:25:24.224Z,6.27
2023-11-25T10:29:26.077Z,9.20
2023-11-25T10:33:28.524Z,10.00
2023-11-25T10:37:32.734Z,7.03
2023-11-25T10:41:35.076Z,6.87
2023-11-25T10:45:36.633Z,7.10
2023-11-25T10:49:40.131Z,4.03
2023-11-25T10:53:45.685Z,7.23
2023-11-25T10:57:53.112Z,5.13
2023-11-25T11:02:15.513Z,6.87
2023-11-25T11:06:25.062Z,6.13
2023-11-25T11:10:32.319Z,7.93
2023-11-25T11:14:37.907Z,4.30
2023-11-25T11:18:42.656Z,5.73
2023-11-25T11:22:44.274Z,5.57
2023-11-25T11:26:52.608Z,6.20
2023-11-25T11:31:31.353Z,7.50
2023-11-25T11:35:39.824Z,6.77
2023-11-25T11:39:56.169Z,5.80
2023-11-25T11:44:05.024Z,4.50
2023-11-25T11:48:14.995Z,6.67
2023-11-25T11:52:16.375Z,5.90
2023-11-25T11:56:18.573Z,5.47
2023-11-25T12:00:20.043Z,7.20
2023-11-25T12:04:22.075Z,8.83
2023-11-25T12:08:24.461Z,6.27
2023-11-25T12:12:26.184Z,9.40
2023-11-25T12:16:27.642Z,9.53
2023-11-25T12:20:29.630Z,4.93
2023-11-25T12:24:31.098Z,7.77
2023-11-25T12:28:41.440Z,7.03
2023-11-25T12:32:44.735Z,7.33
2023-11-25T12:36:46.318Z,7.43
2023-11-25T12:40:47.814Z,7.33
2023-11-25T12:44:51.444Z,9.67
2023-11-25T12:48:53.070Z,10.70
2023-11-25T12:53:09.027Z,8.83
2023-11-25T12:57:11.551Z,10.63
2023-11-25T13:01:13.728Z,11.83
2023-11-25T13:05:25.407Z,9.37
2023-11-25T13:09:34.693Z,8.17
2023-11-25T13:13:36.654Z,7.60
2023-11-25T13:17:38.102Z,10.70
2023-11-25T13:21:41.284Z,7.43
2023-11-25T13:25:42.768Z,11.67
2023-11-25T13:29:44.384Z,10.60
2023-11-25T13:33:45.936Z,5.10
2023-11-25T13:37:47.466Z,8.40
2023-11-25T13:41:48.906Z,6.07
2023-11-25T13:45:50.308Z,6.33
2023-11-25T13:49:54.642Z,8.30
2023-11-25T13:54:00.249Z,10.80
2023-11-25T13:58:01.713Z,8.30
2023-11-25T14:02:04.021Z,8.43
2023-11-25T14:06:05.983Z,7.73
2023-11-25T14:10:10.431Z,7.73
2023-11-25T14:14:13.235Z,9.27
2023-11-25T14:18:14.842Z,11.30
2023-11-25T14:22:20.090Z,11.23
2023-11-25T14:26:21.428Z,10.23
2023-11-25T14:30:24.373Z,10.93
2023-11-25T14:34:25.780Z,8.80
2023-11-25T14:38:27.151Z,9.17
2023-11-25T14:42:32.294Z,10.77
2023-11-25T14:46:34.856Z,9.13
2023-11-25T14:50:44.350Z,9.77
2023-11-25T14:54:46.043Z,9.00
2023-11-25T14:58:47.596Z,7.03
2023-11-25T15:02:50.116Z,5.30
2023-11-25T15:06:51.515Z,7.93
2023-11-25T15:10:52.956Z,6.57
2023-11-25T15:14:55.785Z,9.17
2023-11-25T15:18:57.368Z,11.07
2023-11-25T15:23:00.808Z,8.73
2023-11-25T15:27:03.182Z,11.23
2023-11-25T15:31:05.076Z,10.20
2023-11-25T15:35:08.373Z,8.80
2023-11-25T15:39:10.198Z,8.00
2023-11-25T15:43:11.517Z,5.50
2023-11-25T15:47:12.906Z,6.87
2023-11-25T15:51:14.413Z,6.23
2023-11-25T15:55:15.720Z,12.83
2023-11-25T15:59:17.054Z,13.87
2023-11-25T16:03:18.460Z,5.30
2023-11-25T16:07:21.928Z,5.77
2023-11-25T16:11:24.444Z,6.97
2023-11-25T16:15:25.954Z,6.83
2023-11-25T16:19:27.588Z,15.33
2023-11-25T16:23:29.460Z,13.37
2023-11-25T16:27:30.758Z,18.23
2023-11-25T16:31:32.405Z,15.57
2023-11-25T16:35:33.897Z,17.27
2023-11-25T16:39:37.793Z,19.70
2023-11-25T16:43:39.933Z,15.67
2023-11-25T16:47:41.391Z,14.80
2023-11-25T16:51:43.135Z,21.63
2023-11-25T16:55:44.733Z,16.23
2023-11-25T16:59:46.175Z,17.23
2023-11-25T17:03:47.885Z,14.60
2023-11-25T17:07:49.501Z,20.00
2023-11-25T17:11:50.963Z,15.23
2023-11-25T17:15:52.267Z,12.00
2023-11-25T17:19:53.789Z,10.20
2023-11-25T17:23:55.420Z,11.60
2023-11-25T17:27:57.824Z,11.53
2023-11-25T17:31:59.564Z,15.07
2023-11-25T17:36:00.938Z,21.07
2023-11-25T17:40:02.700Z,12.47
2023-11-25T17:44:04.266Z,13.83
2023-11-25T17:48:06.320Z,13.93
2023-11-25T17:52:11.216Z,15.00
2023-11-25T17:56:12.579Z,12.47
2023-11-25T18:00:14.159Z,10.27
2023-11-25T18:04:15.533Z,8.73
2023-11-25T18:08:16.907Z,7.13
2023-11-25T18:12:18.280Z,7.50
2023-11-25T18:16:19.887Z,7.80
2023-11-25T18:20:21.329Z,5.50
2023-11-25T18:24:22.691Z,7.80
2023-11-25T18:28:23.999Z,8.00
2023-11-25T18:32:25.329Z,14.73
2023-11-25T18:36:26.705Z,12.23
2023-11-25T18:40:29.307Z,15.17
2023-11-25T18:44:30.768Z,12.73
2023-11-25T18:48:35.668Z,15.70
2023-11-25T18:52:38.388Z,14.63
2023-11-25T18:56:39.776Z,15.53
2023-11-25T19:00:41.446Z,16.00
2023-11-25T19:04:42.876Z,17.93
2023-11-25T19:08:44.224Z,14.67
2023-11-25T19:12:45.612Z,18.30
2023-11-25T19:16:47.110Z,14.93
2023-11-25T19:20:48.536Z,20.07
2023-11-25T19:24:49.842Z,13.17
2023-11-25T19:28:51.582Z,19.57
2023-11-25T19:32:53.059Z,13.80
2023-11-25T19:36:54.600Z,18.73
2023-11-25T19:40:55.983Z,20.47
2023-11-25T19:44:57.520Z,14.43
2023-11-25T19:48:59.720Z,15.43
2023-11-25T19:53:01.112Z,13.27
2023-11-25T19:57:02.484Z,14.57
2023-11-25T20:01:04.084Z,16.60
2023-11-25T20:05:06.491Z,15.13
2023-11-25T20:09:09.688Z,17.10
2023-11-25T20:13:11.101Z,13.03
2023-11-25T20:17:12.620Z,18.00
2023-11-25T20:21:14.350Z,17.60
2023-11-25T20:25:15.805Z,12.20
2023-11-25T20:29:17.149Z,18.47
2023-11-25T20:33:18.558Z,14.50
2023-11-25T20:37:19.963Z,14.83
2023-11-25T20:41:21.284Z,15.17
2023-11-25T20:45:22.805Z,16.00
2023-11-25T20:49:24.481Z,14.23
2023-11-25T20:53:27.070Z,14.47
2023-11-25T20:57:28.404Z,17.67
2023-11-25T21:01:31.390Z,12.63
2023-11-25T21:05:35.790Z,12.40
2023-11-25T21:09:37.312Z,14.37
2023-11-25T21:13:40.395Z,10.93
2023-11-25T21:18:12.530Z,15.60
2023-11-25T21:22:13.980Z,17.10
2023-11-25T21:26:15.519Z,12.87
2023-11-25T21:30:20.379Z,15.17
2023-11-25T21:34:22.774Z,12.67
2023-11-25T21:38:33.623Z,11.67
2023-11-25T21:42:35.019Z,16.00
2023-11-25T21:46:36.440Z,13.87
2023-11-25T21:50:37.833Z,17.13
2023-11-25T21:54:39.269Z,13.30
2023-11-25T21:58:41.655Z,12.90
2023-11-25T22:02:43.308Z,13.47
2023-11-25T22:06:44.931Z,18.50
2023-11-25T22:10:46.653Z,14.10
2023-11-25T22:14:47.985Z,14.63
2023-11-25T22:18:51.737Z,18.00
2023-11-25T22:22:53.405Z,15.27
2023-11-25T22:27:09.283Z,11.17
2023-11-25T22:31:16.747Z,16.27
2023-11-25T22:35:20.746Z,16.50
2023-11-25T22:39:22.410Z,18.90
2023-11-25T22:43:23.759Z,16.40
2023-11-25T22:47:25.293Z,16.10
2023-11-25T22:51:27.559Z,17.43
2023-11-25T22:55:29.252Z,16.33
2023-11-25T22:59:30.688Z,16.57
2023-11-25T23:03:32.458Z,14.53
2023-11-25T23:07:33.904Z,12.73
2023-11-25T23:11:35.636Z,14.50
2023-11-25T23:15:37.201Z,12.43
2023-11-25T23:19:38.573Z,9.53
2023-11-25T23:23:46.167Z,10.23
2023-11-25T23:27:50.483Z,14.23
2023-11-25T23:31:52.177Z,25.97
2023-11-25T23:35:53.657Z,15.90
2023-11-25T23:39:55.040Z,10.73
2023-11-25T23:43:56.429Z,12.47
2023-11-25T23:47:58.308Z,14.43
2023-11-25T23:52:00.602Z,14.87
2023-11-25T23:56:02.114Z,11.57
